createdAt,value
2023-04-21T00:00:19.451Z,25.90
2023-04-21T00:02:46.813Z,22.83
2023-04-21T00:05:14.188Z,23.03
2023-04-21T00:07:41.735Z,23.90
2023-04-21T00:10:08.906Z,27.17
2023-04-21T00:12:35.484Z,22.17
2023-04-21T00:15:02.130Z,24.90
2023-04-21T00:17:28.794Z,27.67
2023-04-21T00:19:55.296Z,20.25
2023-04-21T00:22:22.372Z,26.20
2023-04-21T00:24:48.993Z,21.30
2023-04-21T00:27:15.790Z,24.67
2023-04-21T00:29:42.362Z,20.83
2023-04-21T00:32:10.237Z,25.30
2023-04-21T00:34:36.839Z,30.92
2023-04-21T00:37:03.400Z,20.95
2023-04-21T00:39:29.972Z,25.87
2023-04-21T00:41:57.467Z,20.77
2023-04-21T00:44:23.975Z,24.80
2023-04-21T00:46:50.632Z,24.77
2023-04-21T00:49:17.399Z,27.53
2023-04-21T00:51:44.053Z,23.80
2023-04-21T00:54:10.694Z,22.85
2023-04-21T00:56:37.341Z,26.93
2023-04-21T00:59:03.982Z,28.67
2023-04-21T01:01:36.686Z,22.98
2023-04-21T01:04:04.124Z,20.90
2023-04-21T01:06:36.937Z,24.85
2023-04-21T01:09:04.876Z,22.43
2023-04-21T01:11:32.281Z,20.10
2023-04-21T01:13:58.776Z,23.30
2023-04-21T01:16:25.317Z,20.97
2023-04-21T01:18:54.838Z,22.87
2023-04-21T01:21:22.007Z,22.07
2023-04-21T01:23:48.675Z,22.63
2023-04-21T01:26:17.575Z,25.87
2023-04-21T01:28:44.111Z,25.00
2023-04-21T01:31:10.590Z,24.17
2023-04-21T01:33:37.103Z,30.70
2023-04-21T01:36:03.653Z,21.17
2023-04-21T01:38:30.157Z,22.50
2023-04-21T01:40:56.931Z,24.53
2023-04-21T01:43:24.377Z,23.03
2023-04-21T01:45:50.894Z,21.37
2023-04-21T01:48:17.475Z,21.97
2023-04-21T01:50:43.951Z,17.87
2023-04-21T01:53:10.434Z,21.10
2023-04-21T01:55:36.916Z,20.07
2023-04-21T01:58:03.409Z,22.47
2023-04-21T02:00:29.986Z,23.20
2023-04-21T02:02:56.737Z,22.77
2023-04-21T02:05:23.340Z,22.93
2023-04-21T02:07:49.805Z,19.70
2023-04-21T02:10:16.357Z,25.03
2023-04-21T02:12:42.845Z,18.60
2023-04-21T02:15:09.726Z,22.00
2023-04-21T02:17:36.663Z,24.20
2023-04-21T02:20:04.427Z,25.97
2023-04-21T02:22:30.965Z,23.00
2023-04-21T02:24:57.755Z,22.10
2023-04-21T02:27:24.216Z,23.27
2023-04-21T02:29:50.837Z,18.03
2023-04-21T02:32:25.631Z,19.23
2023-04-21T02:34:52.586Z,25.83
2023-04-21T02:37:19.792Z,24.33
2023-04-21T02:39:46.285Z,24.17
2023-04-21T02:42:12.780Z,22.23
2023-04-21T02:44:39.356Z,23.70
2023-04-21T02:47:05.892Z,22.97
2023-04-21T02:49:32.464Z,24.80
2023-04-21T02:51:58.945Z,24.87
2023-04-21T02:54:25.438Z,23.83
2023-04-21T02:56:51.935Z,24.17
2023-04-21T02:59:18.783Z,21.83
2023-04-21T03:01:46.432Z,22.03
2023-04-21T03:04:13.129Z,20.33
2023-04-21T03:06:39.933Z,27.60
2023-04-21T03:09:06.486Z,22.87
2023-04-21T03:11:32.996Z,22.00
2023-04-21T03:13:59.486Z,26.57
2023-04-21T03:16:26.114Z,22.70
2023-04-21T03:18:52.637Z,17.17
2023-04-21T03:21:19.222Z,20.87
2023-04-21T03:23:45.737Z,25.00
2023-04-21T03:26:12.232Z,23.30
2023-04-21T03:28:38.692Z,21.73
2023-04-21T03:31:05.252Z,20.77
2023-04-21T03:33:31.776Z,20.73
2023-04-21T03:35:58.365Z,22.63
2023-04-21T03:38:24.858Z,22.97
2023-04-21T03:40:51.333Z,26.13
2023-04-21T03:43:19.334Z,24.60
2023-04-21T03:45:45.884Z,26.40
2023-04-21T03:48:12.473Z,27.40
2023-04-21T03:50:39.004Z,35.10
2023-04-21T03:53:05.619Z,28.43
2023-04-21T03:55:32.200Z,24.27
2023-04-21T03:57:58.839Z,25.50
2023-04-21T04:00:25.679Z,27.03
2023-04-21T04:02:52.241Z,27.23
2023-04-21T04:05:18.916Z,27.13
2023-04-21T04:07:45.534Z,24.80
2023-04-21T04:10:12.245Z,27.93
2023-04-21T04:12:38.770Z,25.67
2023-04-21T04:15:05.508Z,24.43
2023-04-21T04:17:32.019Z,23.30
2023-04-21T04:19:58.529Z,21.47
2023-04-21T04:22:25.069Z,25.37
2023-04-21T04:24:51.602Z,23.13
2023-04-21T04:27:18.133Z,22.10
2023-04-21T04:29:46.629Z,20.70
2023-04-21T04:32:13.662Z,20.30
2023-04-21T04:34:40.149Z,20.40
2023-04-21T04:37:06.884Z,22.23
2023-04-21T04:39:33.496Z,22.43
2023-04-21T04:42:00.003Z,26.50
2023-04-21T04:44:26.509Z,21.37
2023-04-21T04:46:54.332Z,23.07
2023-04-21T04:49:22.223Z,23.83
2023-04-21T04:51:50.273Z,23.77
2023-04-21T04:54:17.018Z,21.93
2023-04-21T04:56:43.837Z,23.80
2023-04-21T04:59:10.922Z,24.90
2023-04-21T05:01:38.394Z,22.47
2023-04-21T05:04:05.358Z,19.57
2023-04-21T05:06:32.674Z,23.23
2023-04-21T05:08:59.195Z,26.83
2023-04-21T05:11:25.820Z,19.70
2023-04-21T05:13:52.332Z,24.73
2023-04-21T05:16:19.279Z,22.77
2023-04-21T05:18:46.161Z,23.27
2023-04-21T05:21:13.010Z,22.97
2023-04-21T05:23:39.799Z,26.87
2023-04-21T05:26:06.339Z,22.27
2023-04-21T05:28:33.438Z,24.90
2023-04-21T05:31:00.148Z,21.47
2023-04-21T05:33:27.029Z,19.17
2023-04-21T05:35:53.761Z,16.67
2023-04-21T05:38:20.294Z,21.73
2023-04-21T05:40:52.524Z,19.67
2023-04-21T05:43:19.147Z,17.53
2023-04-21T05:45:45.717Z,22.15
2023-04-21T05:48:13.608Z,21.33
2023-04-21T05:50:40.456Z,20.37
2023-04-21T05:53:06.987Z,18.30
2023-04-21T05:55:36.775Z,23.10
2023-04-21T05:58:04.265Z,16.77
2023-04-21T06:00:31.045Z,17.60
2023-04-21T06:02:57.778Z,21.90
2023-04-21T06:05:24.572Z,20.98
2023-04-21T06:07:51.274Z,20.73
2023-04-21T06:10:17.898Z,20.95
2023-04-21T06:12:44.401Z,18.38
2023-04-21T06:15:11.020Z,19.20
2023-04-21T06:17:37.534Z,19.63
2023-04-21T06:20:04.359Z,14.73
2023-04-21T06:22:30.937Z,20.77
2023-04-21T06:24:58.792Z,18.40
2023-04-21T06:27:25.788Z,18.60
2023-04-21T06:29:56.447Z,25.38
2023-04-21T06:32:23.109Z,18.90
2023-04-21T06:34:49.822Z,16.10
2023-04-21T06:37:16.665Z,22.35
2023-04-21T06:39:43.236Z,21.30
2023-04-21T06:42:09.743Z,18.75
2023-04-21T06:44:38.097Z,20.10
2023-04-21T06:47:04.716Z,19.40
2023-04-21T06:49:31.381Z,16.83
2023-04-21T06:51:57.881Z,15.88
2023-04-21T06:54:24.443Z,21.27
2023-04-21T06:56:51.537Z,17.25
2023-04-21T06:59:18.193Z,20.15
2023-04-21T07:01:44.958Z,21.05
2023-04-21T07:04:11.513Z,18.23
2023-04-21T07:06:38.032Z,18.40
2023-04-21T07:09:05.859Z,20.77
2023-04-21T07:11:32.371Z,19.02
2023-04-21T07:14:01.325Z,25.70
2023-04-21T07:16:31.044Z,23.30
2023-04-21T07:18:57.682Z,24.55
2023-04-21T07:21:24.313Z,19.92
2023-04-21T07:23:51.195Z,16.90
2023-04-21T07:26:18.369Z,20.20
2023-04-21T07:28:44.836Z,17.55
2023-04-21T07:31:11.419Z,18.00
2023-04-21T07:33:37.919Z,15.80
2023-04-21T07:36:04.589Z,13.30
2023-04-21T07:38:31.182Z,17.40
2023-04-21T07:40:57.662Z,14.52
2023-04-21T07:43:25.381Z,17.75
2023-04-21T07:45:52.742Z,19.42
2023-04-21T07:48:19.369Z,15.75
2023-04-21T07:50:45.852Z,9.60
2023-04-21T07:53:12.438Z,10.75
2023-04-21T07:55:38.973Z,11.82
2023-04-21T07:58:05.510Z,10.63
2023-04-21T08:00:32.023Z,14.52
2023-04-21T08:02:58.610Z,13.50
2023-04-21T08:05:27.950Z,16.02
2023-04-21T08:07:56.821Z,13.43
2023-04-21T08:10:23.385Z,17.85
2023-04-21T08:12:50.703Z,8.18
2023-04-21T08:15:17.248Z,17.27
2023-04-21T08:17:43.875Z,18.08
2023-04-21T08:20:10.901Z,13.43
2023-04-21T08:22:37.686Z,17.23
2023-04-21T08:25:04.632Z,16.13
2023-04-21T08:27:31.208Z,12.60
2023-04-21T08:29:58.038Z,16.38
2023-04-21T08:32:26.550Z,14.90
2023-04-21T08:34:53.578Z,11.85
2023-04-21T08:37:20.615Z,12.93
2023-04-21T08:39:47.425Z,12.55
2023-04-21T08:42:15.054Z,13.88
2023-04-21T08:44:41.836Z,10.60
2023-04-21T08:47:10.024Z,7.88
2023-04-21T08:49:36.696Z,8.68
2023-04-21T08:52:03.277Z,14.95
2023-04-21T08:54:30.193Z,9.52
2023-04-21T08:57:04.567Z,15.18
2023-04-21T08:59:38.583Z,14.40
2023-04-21T09:02:11.778Z,12.90
2023-04-21T09:04:39.088Z,13.18
2023-04-21T09:07:05.839Z,12.88
2023-04-21T09:09:32.451Z,9.90
2023-04-21T09:11:59.458Z,8.27
2023-04-21T09:14:31.465Z,10.52
2023-04-21T09:17:01.863Z,9.18
2023-04-21T09:19:28.976Z,6.22
2023-04-21T09:21:55.504Z,6.53
2023-04-21T09:24:22.041Z,10.88
2023-04-21T09:26:54.626Z,10.18
2023-04-21T09:29:24.894Z,10.55
2023-04-21T09:31:52.065Z,12.57
2023-04-21T09:34:25.010Z,7.88
2023-04-21T09:37:03.514Z,9.65
2023-04-21T09:39:43.119Z,15.20
2023-04-21T09:42:16.123Z,8.05
2023-04-21T09:44:52.455Z,9.60
2023-04-21T09:47:23.028Z,5.38
2023-04-21T09:49:52.690Z,7.32
2023-04-21T09:52:22.274Z,6.82
2023-04-21T09:54:52.595Z,8.70
2023-04-21T09:57:21.431Z,5.80
2023-04-21T09:59:48.016Z,5.93
2023-04-21T10:02:14.682Z,4.97
2023-04-21T10:04:41.721Z,4.75
2023-04-21T10:07:09.620Z,5.30
2023-04-21T10:09:40.812Z,6.90
2023-04-21T10:12:09.561Z,5.43
2023-04-21T10:14:36.472Z,8.30
2023-04-21T10:17:10.208Z,5.50
2023-04-21T10:19:40.133Z,3.35
2023-04-21T10:22:07.725Z,5.65
2023-04-21T10:24:38.295Z,6.65
2023-04-21T10:27:04.929Z,7.82
2023-04-21T10:29:47.967Z,5.13
2023-04-21T10:32:38.665Z,6.90
2023-04-21T10:35:05.451Z,4.20
2023-04-21T10:37:32.045Z,7.93
2023-04-21T10:39:58.657Z,6.63
2023-04-21T10:42:26.045Z,6.25
2023-04-21T10:44:58.864Z,4.35
2023-04-21T10:47:28.923Z,3.53
2023-04-21T10:49:58.921Z,4.30
2023-04-21T10:52:32.608Z,5.70
2023-04-21T10:54:59.116Z,3.85
2023-04-21T10:57:25.715Z,6.93
2023-04-21T10:59:52.342Z,7.78
2023-04-21T11:02:19.198Z,11.23
2023-04-21T11:04:49.186Z,6.32
2023-04-21T11:07:16.964Z,6.55
2023-04-21T11:09:43.778Z,7.53
2023-04-21T11:12:10.935Z,7.13
2023-04-21T11:14:38.157Z,5.55
2023-04-21T11:17:04.974Z,9.80
2023-04-21T11:19:34.655Z,5.05
2023-04-21T11:22:01.333Z,5.45
2023-04-21T11:24:27.987Z,7.22
2023-04-21T11:26:54.521Z,6.40
2023-04-21T11:29:21.055Z,3.92
2023-04-21T11:31:49.122Z,10.27
2023-04-21T11:34:16.398Z,4.40
2023-04-21T11:36:43.469Z,6.07
2023-04-21T11:39:11.199Z,4.30
2023-04-21T11:41:42.003Z,6.60
2023-04-21T11:44:08.938Z,3.92
2023-04-21T11:46:37.401Z,6.18
2023-04-21T11:49:04.938Z,7.35
2023-04-21T11:51:35.220Z,7.22
2023-04-21T11:54:01.845Z,6.65
2023-04-21T11:56:28.406Z,7.07
2023-04-21T11:58:55.719Z,8.70
2023-04-21T12:01:22.406Z,6.70
2023-04-21T12:03:52.795Z,4.45
2023-04-21T12:06:23.316Z,3.90
2023-04-21T12:08:54.601Z,6.50
2023-04-21T12:11:21.180Z,4.50
2023-04-21T12:13:47.673Z,5.03
2023-04-21T12:16:14.436Z,4.53
2023-04-21T12:18:42.501Z,3.60
2023-04-21T12:21:09.251Z,5.88
2023-04-21T12:23:35.863Z,5.20
2023-04-21T12:26:02.642Z,4.03
2023-04-21T12:28:29.634Z,6.68
2023-04-21T12:30:56.411Z,3.33
2023-04-21T12:33:23.009Z,3.63
2023-04-21T12:35:49.688Z,3.83
2023-04-21T12:38:16.512Z,4.95
2023-04-21T12:40:43.167Z,4.93
2023-04-21T12:43:09.734Z,4.55
2023-04-21T12:45:36.430Z,4.20
2023-04-21T12:48:05.022Z,6.47
2023-04-21T12:50:31.671Z,3.70
2023-04-21T12:52:58.896Z,3.83
2023-04-21T12:55:25.474Z,5.95
2023-04-21T12:57:52.977Z,6.03
2023-04-21T13:00:19.524Z,7.80
2023-04-21T13:02:46.825Z,7.13
2023-04-21T13:05:13.526Z,3.97
2023-04-21T13:07:40.076Z,4.80
2023-04-21T13:10:06.955Z,5.13
2023-04-21T13:12:33.626Z,6.45
2023-04-21T13:15:00.113Z,5.15
2023-04-21T13:17:26.710Z,4.30
2023-04-21T13:19:53.244Z,5.93
2023-04-21T13:22:19.773Z,5.00
2023-04-21T13:24:46.289Z,4.40
2023-04-21T13:27:12.875Z,4.15
2023-04-21T13:29:39.837Z,4.05
2023-04-21T13:32:06.648Z,5.28
2023-04-21T13:34:33.689Z,5.45
2023-04-21T13:37:01.009Z,4.10
2023-04-21T13:39:27.646Z,5.97
2023-04-21T13:41:54.416Z,3.17
2023-04-21T13:44:23.973Z,5.85
2023-04-21T13:46:53.002Z,5.30
2023-04-21T13:49:19.840Z,3.95
2023-04-21T13:51:46.319Z,3.20
2023-04-21T13:54:12.822Z,4.32
2023-04-21T13:56:39.460Z,4.32
2023-04-21T13:59:06.636Z,3.13
2023-04-21T14:01:33.169Z,3.25
2023-04-21T14:03:59.919Z,5.63
2023-04-21T14:06:26.628Z,4.50
2023-04-21T14:08:53.356Z,3.47
2023-04-21T14:11:20.052Z,3.40
2023-04-21T14:13:59.899Z,5.45
2023-04-21T14:16:33.555Z,3.72
2023-04-21T14:19:00.204Z,3.03
2023-04-21T14:21:26.780Z,2.78
2023-04-21T14:23:53.476Z,3.08
2023-04-21T14:26:20.501Z,4.63
2023-04-21T14:28:47.000Z,3.05
2023-04-21T14:31:13.585Z,2.85
2023-04-21T14:33:40.162Z,3.97
2023-04-21T14:36:06.948Z,4.22
2023-04-21T14:38:33.807Z,2.85
2023-04-21T14:41:00.301Z,3.30
2023-04-21T14:43:26.954Z,4.50
2023-04-21T14:45:53.499Z,3.25
2023-04-21T14:48:21.002Z,2.33
2023-04-21T14:50:47.691Z,2.25
2023-04-21T14:53:14.239Z,6.55
2023-04-21T14:55:40.909Z,3.10
2023-04-21T14:58:07.583Z,3.38
2023-04-21T15:00:35.029Z,4.10
2023-04-21T15:03:01.658Z,3.67
2023-04-21T15:05:28.671Z,2.63
2023-04-21T15:07:55.488Z,1.90
2023-04-21T15:10:22.123Z,3.15
2023-04-21T15:12:48.626Z,3.88
2023-04-21T15:15:15.191Z,5.40
2023-04-21T15:17:41.715Z,2.80
2023-04-21T15:20:10.229Z,4.22
2023-04-21T15:22:36.753Z,2.55
2023-04-21T15:25:03.411Z,3.58
2023-04-21T15:27:30.326Z,2.35
2023-04-21T15:29:56.873Z,3.90
2023-04-21T15:32:23.406Z,3.92
2023-04-21T15:34:50.050Z,4.00
2023-04-21T15:37:23.541Z,3.05
2023-04-21T15:39:51.814Z,2.28
2023-04-21T15:42:18.315Z,3.08
2023-04-21T15:44:47.096Z,2.92
2023-04-21T15:47:15.174Z,2.47
2023-04-21T15:49:41.665Z,22.55
2023-04-21T15:52:08.244Z,2.08
2023-04-21T15:54:35.261Z,3.30
2023-04-21T15:57:05.684Z,5.65
2023-04-21T15:59:32.274Z,4.03
2023-04-21T16:01:58.943Z,3.85
2023-04-21T16:04:25.839Z,2.58
2023-04-21T16:06:52.863Z,3.45
2023-04-21T16:09:21.262Z,3.15
2023-04-21T16:11:50.204Z,2.75
2023-04-21T16:14:16.933Z,3.92
2023-04-21T16:16:43.922Z,2.88
2023-04-21T16:19:10.600Z,1.73
2023-04-21T16:21:37.612Z,2.08
2023-04-21T16:24:06.879Z,2.38
2023-04-21T16:26:34.989Z,2.47
2023-04-21T16:29:02.019Z,3.83
2023-04-21T16:31:28.893Z,3.20
2023-04-21T16:33:59.890Z,2.05
2023-04-21T16:36:28.667Z,2.50
2023-04-21T16:38:55.683Z,4.82
2023-04-21T16:41:22.581Z,1.75
2023-04-21T16:43:49.262Z,2.95
2023-04-21T16:46:15.811Z,3.15
2023-04-21T16:48:42.466Z,1.55
2023-04-21T16:51:09.037Z,2.05
2023-04-21T16:53:36.821Z,3.10
2023-04-21T16:56:04.909Z,3.78
2023-04-21T16:58:31.610Z,2.83
2023-04-21T17:00:58.295Z,2.78
2023-04-21T17:03:27.755Z,1.80
2023-04-21T17:05:54.619Z,2.05
2023-04-21T17:08:21.165Z,2.38
2023-04-21T17:10:48.040Z,1.80
2023-04-21T17:13:14.591Z,2.83
2023-04-21T17:15:41.464Z,4.18
2023-04-21T17:18:08.605Z,3.75
2023-04-21T17:20:35.238Z,5.38
2023-04-21T17:23:01.756Z,1.88
2023-04-21T17:25:28.547Z,4.25
2023-04-21T17:27:55.151Z,2.90
2023-04-21T17:30:22.883Z,2.85
2023-04-21T17:32:51.657Z,2.88
2023-04-21T17:35:24.318Z,3.30
2023-04-21T17:37:50.948Z,3.55
2023-04-21T17:40:17.604Z,5.65
2023-04-21T17:42:44.090Z,2.95
2023-04-21T17:45:11.104Z,2.92
2023-04-21T17:47:40.707Z,2.83
2023-04-21T17:50:12.743Z,2.53
2023-04-21T17:52:39.985Z,2.28
2023-04-21T17:55:09.337Z,3.17
2023-04-21T17:57:36.365Z,2.55
2023-04-21T18:00:08.375Z,4.43
2023-04-21T18:02:38.180Z,3.00
2023-04-21T18:05:07.501Z,4.05
2023-04-21T18:07:34.187Z,6.05
2023-04-21T18:10:00.812Z,6.45
2023-04-21T18:12:27.960Z,2.67
2023-04-21T18:14:54.687Z,2.75
2023-04-21T18:17:23.436Z,3.10
2023-04-21T18:19:50.249Z,4.15
2023-04-21T18:22:17.079Z,5.82
2023-04-21T18:24:43.814Z,5.38
2023-04-21T18:27:11.390Z,5.75
2023-04-21T18:29:38.146Z,8.25
2023-04-21T18:32:04.843Z,6.00
2023-04-21T18:34:31.507Z,7.40
2023-04-21T18:36:58.062Z,7.63
2023-04-21T18:39:25.501Z,5.47
2023-04-21T18:41:52.159Z,4.45
2023-04-21T18:44:18.780Z,3.60
2023-04-21T18:46:45.437Z,4.22
2023-04-21T18:49:12.117Z,6.68
2023-04-21T18:51:38.864Z,7.78
2023-04-21T18:54:05.788Z,7.60
2023-04-21T18:56:35.515Z,5.20
2023-04-21T18:59:02.158Z,8.20
2023-04-21T19:01:28.827Z,5.55
2023-04-21T19:03:55.570Z,3.40
2023-04-21T19:06:22.170Z,4.88
2023-04-21T19:08:51.262Z,4.75
2023-04-21T19:11:17.806Z,4.20
2023-04-21T19:13:44.450Z,3.90
2023-04-21T19:16:11.287Z,6.88
2023-04-21T19:18:38.116Z,5.78
2023-04-21T19:21:06.027Z,4.63
2023-04-21T19:23:32.961Z,7.20
2023-04-21T19:26:00.323Z,17.40
2023-04-21T19:28:26.936Z,16.80
2023-04-21T19:30:53.429Z,15.88
2023-04-21T19:33:20.056Z,18.52
2023-04-21T19:35:46.697Z,16.45
2023-04-21T19:38:13.217Z,20.00
2023-04-21T19:40:39.819Z,17.38
2023-04-21T19:43:08.916Z,20.55
2023-04-21T19:45:35.395Z,18.48
2023-04-21T19:48:02.019Z,23.10
2023-04-21T19:50:28.676Z,13.35
2023-04-21T19:52:55.184Z,12.70
2023-04-21T19:55:21.648Z,17.85
2023-04-21T19:57:48.152Z,21.88
2023-04-21T20:00:15.097Z,22.15
2023-04-21T20:02:42.393Z,17.92
2023-04-21T20:05:09.624Z,21.52
2023-04-21T20:07:36.657Z,16.80
2023-04-21T20:10:03.960Z,17.52
2023-04-21T20:12:30.487Z,21.73
2023-04-21T20:14:57.228Z,19.17
2023-04-21T20:17:23.766Z,19.10
2023-04-21T20:19:50.240Z,18.00
2023-04-21T20:22:16.972Z,17.52
2023-04-21T20:24:43.512Z,17.75
2023-04-21T20:27:10.057Z,11.02
2023-04-21T20:29:36.992Z,11.75
2023-04-21T20:32:03.739Z,8.63
2023-04-21T20:34:30.551Z,9.60
2023-04-21T20:36:57.756Z,9.75
2023-04-21T20:39:25.467Z,7.38
2023-04-21T20:42:04.743Z,7.30
2023-04-21T20:44:38.826Z,7.80
2023-04-21T20:47:05.557Z,6.85
2023-04-21T20:49:32.198Z,9.77
2023-04-21T20:51:59.016Z,7.18
2023-04-21T20:54:25.558Z,6.20
2023-04-21T20:56:52.117Z,8.38
2023-04-21T20:59:18.758Z,8.85
2023-04-21T21:01:45.374Z,8.27
2023-04-21T21:04:12.153Z,8.27
2023-04-21T21:06:38.821Z,10.05
2023-04-21T21:09:06.120Z,9.75
2023-04-21T21:11:32.744Z,11.70
2023-04-21T21:13:59.367Z,8.68
2023-04-21T21:16:26.048Z,9.40
2023-04-21T21:18:52.748Z,10.23
2023-04-21T21:21:19.298Z,16.73
2023-04-21T21:23:45.923Z,20.30
2023-04-21T21:26:12.474Z,13.75
2023-04-21T21:28:39.049Z,15.48
2023-04-21T21:31:05.630Z,9.82
2023-04-21T21:33:32.181Z,14.10
2023-04-21T21:35:58.790Z,13.30
2023-04-21T21:38:25.309Z,15.65
2023-04-21T21:40:51.836Z,13.93
2023-04-21T21:43:18.421Z,18.77
2023-04-21T21:45:44.978Z,18.38
2023-04-21T21:48:11.662Z,18.80
2023-04-21T21:50:38.245Z,20.85
2023-04-21T21:53:04.832Z,19.45
2023-04-21T21:55:31.334Z,20.38
2023-04-21T21:57:58.116Z,20.33
2023-04-21T22:00:26.586Z,17.17
2023-04-21T22:02:53.204Z,15.07
2023-04-21T22:05:19.874Z,23.63
2023-04-21T22:07:46.616Z,21.60
2023-04-21T22:10:13.258Z,22.80
2023-04-21T22:12:39.792Z,21.63
2023-04-21T22:15:07.073Z,20.35
2023-04-21T22:17:34.836Z,21.33
2023-04-21T22:20:01.457Z,21.70
2023-04-21T22:22:28.017Z,25.63
2023-04-21T22:24:54.522Z,26.55
2023-04-21T22:27:21.045Z,31.13
2023-04-21T22:29:47.541Z,27.67
2023-04-21T22:32:14.068Z,24.02
2023-04-21T22:34:40.711Z,25.25
2023-04-21T22:37:07.251Z,25.15
2023-04-21T22:39:33.758Z,20.42
2023-04-21T22:42:01.078Z,24.77
2023-04-21T22:44:27.621Z,20.80
2023-04-21T22:46:54.738Z,20.05
2023-04-21T22:49:21.717Z,20.75
2023-04-21T22:51:48.976Z,25.42
2023-04-21T22:54:15.477Z,27.77
2023-04-21T22:56:42.030Z,23.45
2023-04-21T22:59:08.585Z,24.50
2023-04-21T23:01:35.101Z,22.17
2023-04-21T23:04:01.609Z,18.67
2023-04-21T23:06:28.480Z,22.13
2023-04-21T23:08:54.961Z,21.77
2023-04-21T23:11:21.493Z,22.17
2023-04-21T23:13:48.163Z,22.88
2023-04-21T23:16:14.826Z,20.42
2023-04-21T23:18:41.588Z,23.80
2023-04-21T23:21:08.182Z,23.60
2023-04-21T23:23:34.729Z,24.08
2023-04-21T23:26:01.255Z,23.35
2023-04-21T23:28:27.881Z,23.02
2023-04-21T23:30:54.415Z,23.92
2023-04-21T23:33:20.922Z,25.30
2023-04-21T23:35:47.417Z,24.92
2023-04-21T23:38:13.930Z,27.05
2023-04-21T23:40:40.424Z,25.73
2023-04-21T23:43:07.278Z,29.48
2023-04-21T23:45:33.767Z,24.23
2023-04-21T23:48:00.406Z,22.83
2023-04-21T23:50:26.958Z,27.33
2023-04-21T23:52:53.517Z,27.20
2023-04-21T23:55:20.025Z,26.60
2023-04-21T23:57:47.111Z,24.38
